Terminal Aerodrome Forecast
Issued by NWS

Current Version | Previous Version | Text Only | Print | Product List | Glossary On
Versions: 1 2 3 4 5 6 7 8 9 10 11 12 13 14 15 16 17 18 19 20 21 22 23 24 25
000
FTUS41 KPHI 270200 AAB
TAFPNE
TAF AMD
KPNE 270212Z 2702/2724 33013KT P6SM -SHRA SCT010 OVC040
     FM270400 31008KT P6SM OVC050
     FM271100 33004KT P6SM BKN050
     FM272300 31005KT P6SM BKN200=

USA.gov is the U.S. government's official web portal to all federal, state and local government web resources and services.